Time;durP1;ratioP1;P1;durP2;ratioP2;P2;SDS_P1;SDS_P2;PMS_P1;PMS_P2;Temp;Humidity;BMP_temperature;BMP_pressure;BME280_temperature;BME280_humidity;BME280_pressure;Samples;Min_cycle;Max_cycle;Signal;HPM_P1;HPM_P2
2021/07/10 00:01:50;;;;;;;1.55;0.70;;;;;;;19.36;56.33;98665.03;4934234;29;20369;-75
2021/07/10 00:04:15;;;;;;;1.27;0.60;;;;;;;19.33;56.28;98662.94;4937020;29;20050;-74
2021/07/10 00:06:41;;;;;;;1.13;0.60;;;;;;;19.28;56.34;98666.78;4945166;28;20468;-74
2021/07/10 00:09:06;;;;;;;2.72;0.70;;;;;;;19.27;56.33;98665.16;4920568;29;20498;-74
2021/07/10 00:11:31;;;;;;;2.72;0.85;;;;;;;19.27;56.50;98658.78;4942053;29;20059;-74
2021/07/10 00:13:57;;;;;;;2.75;0.80;;;;;;;19.24;56.80;98651.94;4922539;29;20031;-74
2021/07/10 00:16:22;;;;;;;1.42;0.60;;;;;;;19.18;56.49;98656.13;4922369;29;20633;-75
2021/07/10 00:18:47;;;;;;;0.95;0.80;;;;;;;19.12;56.31;98658.34;4924567;29;20118;-75
2021/07/10 00:21:13;;;;;;;1.05;0.63;;;;;;;19.05;56.46;98666.44;4938316;29;20028;-75
2021/07/10 00:23:38;;;;;;;1.48;0.52;;;;;;;18.98;56.66;98664.22;4924307;29;20111;-75
2021/07/10 00:26:04;;;;;;;2.00;0.50;;;;;;;18.93;56.90;98670.00;4936866;28;20032;-75
2021/07/10 00:28:29;;;;;;;3.00;0.60;;;;;;;18.89;56.92;98669.09;4936374;29;20046;-75
2021/07/10 00:30:54;;;;;;;1.35;0.60;;;;;;;18.87;57.18;98672.19;4933400;29;20019;-75
2021/07/10 00:33:20;;;;;;;3.15;0.68;;;;;;;18.82;57.17;98675.19;4933535;29;20763;-74
2021/07/10 00:35:45;;;;;;;1.35;0.60;;;;;;;18.79;57.12;98695.34;4936630;29;20030;-75
2021/07/10 00:38:11;;;;;;;0.45;0.40;;;;;;;18.77;57.19;98702.41;4932553;29;20464;-74
2021/07/10 00:40:37;;;;;;;1.75;0.57;;;;;;;18.74;57.42;98704.72;4936393;29;20024;-75
2021/07/10 00:43:03;;;;;;;0.90;0.57;;;;;;;18.71;57.12;98707.38;4937436;29;20539;-74
2021/07/10 00:45:28;;;;;;;0.77;0.60;;;;;;;18.63;57.55;98703.53;4911451;29;20043;-74
2021/07/10 00:47:53;;;;;;;1.38;0.60;;;;;;;18.59;57.63;98697.88;4935810;29;20083;-74
2021/07/10 00:50:22;;;;;;;1.13;0.70;;;;;;;18.55;57.62;98696.94;4934729;29;20066;-76
2021/07/10 00:52:47;;;;;;;2.60;0.60;;;;;;;18.47;57.71;98699.81;4938899;28;20032;-76
2021/07/10 00:55:13;;;;;;;1.33;0.60;;;;;;;18.38;57.92;98695.16;4935854;29;20403;-75
2021/07/10 00:57:41;;;;;;;0.85;0.55;;;;;;;18.31;58.04;98694.91;4933292;29;20032;-75
2021/07/10 01:00:16;;;;;;;0.70;0.70;;;;;;;18.23;58.33;98704.94;4933167;29;20036;-75
2021/07/10 01:02:42;;;;;;;1.70;0.70;;;;;;;18.17;58.29;98711.03;4931038;29;20035;-76
2021/07/10 01:05:11;;;;;;;0.90;0.70;;;;;;;18.17;58.65;98714.63;4932677;29;20051;-75
2021/07/10 01:07:37;;;;;;;2.38;0.70;;;;;;;18.20;58.58;98721.47;4935526;29;20027;-74
2021/07/10 01:10:03;;;;;;;0.75;0.70;;;;;;;18.19;58.52;98720.66;4933005;29;20106;-75
2021/07/10 01:12:31;;;;;;;1.80;0.50;;;;;;;18.17;58.72;98719.34;4935459;29;20119;-74
2021/07/10 01:14:56;;;;;;;1.60;0.65;;;;;;;18.13;58.86;98714.53;4926500;29;20115;-75
2021/07/10 01:17:22;;;;;;;3.40;0.77;;;;;;;18.12;59.13;98696.25;4939847;28;20102;-74
2021/07/10 01:19:58;;;;;;;1.67;0.63;;;;;;;18.06;58.98;98694.81;4932816;29;20058;-75
2021/07/10 01:22:23;;;;;;;2.85;0.68;;;;;;;18.00;58.94;98696.97;4933390;29;20039;-74
2021/07/10 01:24:49;;;;;;;2.35;0.60;;;;;;;17.98;59.17;98696.47;4929464;29;20036;-76
2021/07/10 01:27:14;;;;;;;0.50;0.50;;;;;;;17.97;59.08;98691.28;4936853;29;20039;-74
2021/07/10 01:29:40;;;;;;;1.00;0.60;;;;;;;17.94;59.40;98700.28;4937593;29;20395;-72
2021/07/10 01:32:06;;;;;;;0.60;0.60;;;;;;;17.91;59.35;98700.97;4943133;29;20705;-71
2021/07/10 01:34:34;;;;;;;3.25;0.50;;;;;;;17.90;59.47;98704.88;4935130;29;20042;-72
2021/07/10 01:36:59;;;;;;;0.68;0.43;;;;;;;17.91;59.76;98699.00;4931286;29;20102;-72
2021/07/10 01:39:24;;;;;;;1.17;0.50;;;;;;;17.90;59.57;98700.16;4933222;29;20028;-73
2021/07/10 01:41:53;;;;;;;1.77;0.52;;;;;;;17.88;59.63;98691.38;4935708;29;20038;-72
2021/07/10 01:44:21;;;;;;;2.20;0.60;;;;;;;17.89;59.78;98692.16;4931893;29;20404;-72
2021/07/10 01:46:46;;;;;;;2.33;0.55;;;;;;;17.81;59.77;98700.22;4933586;29;20036;-72
2021/07/10 01:49:11;;;;;;;1.38;0.90;;;;;;;17.76;59.86;98705.97;4929909;29;20083;-72
2021/07/10 01:51:37;;;;;;;0.85;0.82;;;;;;;17.73;59.75;98703.06;4933165;29;20032;-71
2021/07/10 01:54:02;;;;;;;0.90;0.80;;;;;;;17.75;59.73;98700.75;4932167;29;20024;-71
2021/07/10 01:56:28;;;;;;;2.15;0.80;;;;;;;17.72;60.28;98693.94;4935109;29;20483;-71
2021/07/10 01:58:54;;;;;;;2.08;0.70;;;;;;;17.71;60.20;98703.41;4931724;29;20036;-72
2021/07/10 02:01:20;;;;;;;1.35;0.70;;;;;;;17.69;59.85;98698.19;4935558;29;20459;-72
2021/07/10 02:03:45;;;;;;;2.53;0.80;;;;;;;17.69;60.04;98695.41;4935904;29;20027;-72
2021/07/10 02:06:11;;;;;;;3.08;0.98;;;;;;;17.66;60.16;98698.88;4935068;29;20032;-75
2021/07/10 02:08:38;;;;;;;1.42;0.80;;;;;;;17.66;60.31;98696.09;4913930;29;20023;-75
2021/07/10 02:11:04;;;;;;;1.20;0.80;;;;;;;17.69;60.43;98694.63;4934424;29;20106;-75
2021/07/10 02:13:29;;;;;;;2.35;0.80;;;;;;;17.69;60.43;98708.47;4932249;29;20031;-76
2021/07/10 02:15:54;;;;;;;1.20;0.80;;;;;;;17.72;60.33;98718.91;4934904;29;20067;-75
2021/07/10 02:18:20;;;;;;;2.42;0.77;;;;;;;17.70;60.34;98715.66;4932515;29;20039;-75
2021/07/10 02:20:45;;;;;;;1.95;1.02;;;;;;;17.73;60.68;98708.59;4934506;29;20091;-75
2021/07/10 02:23:11;;;;;;;1.10;1.00;;;;;;;17.74;60.51;98716.59;4932058;29;20459;-75
2021/07/10 02:25:36;;;;;;;1.60;0.70;;;;;;;17.77;60.33;98706.78;4934863;29;20087;-76
2021/07/10 02:28:02;;;;;;;2.25;0.95;;;;;;;17.80;60.39;98706.91;4936250;28;20028;-76
2021/07/10 02:30:32;;;;;;;3.05;1.08;;;;;;;17.81;60.47;98705.75;4932491;29;20111;-76
2021/07/10 02:32:58;;;;;;;1.80;1.10;;;;;;;17.82;60.29;98712.94;4934389;29;20028;-75
2021/07/10 02:35:24;;;;;;;3.42;1.15;;;;;;;17.80;60.28;98715.22;4930792;28;20059;-76
2021/07/10 02:37:50;;;;;;;3.63;1.20;;;;;;;17.81;60.44;98713.28;4921115;28;20114;-75
2021/07/10 02:40:18;;;;;;;1.10;0.73;;;;;;;17.81;60.54;98719.63;4899474;29;20043;-75
2021/07/10 02:42:44;;;;;;;1.10;0.70;;;;;;;17.82;60.28;98710.16;4934770;29;20043;-75
2021/07/10 02:45:11;;;;;;;1.15;0.90;;;;;;;17.79;60.43;98718.34;4940572;28;20621;-74
2021/07/10 02:47:38;;;;;;;1.10;0.70;;;;;;;17.75;60.29;98720.97;4944481;28;20027;-73
2021/07/10 02:50:06;;;;;;;1.90;0.63;;;;;;;17.69;60.48;98714.84;4942113;28;20019;-73
2021/07/10 02:52:32;;;;;;;1.85;0.80;;;;;;;17.64;60.64;98715.03;4939840;28;20039;-73
2021/07/10 02:54:57;;;;;;;1.92;1.27;;;;;;;17.60;60.64;98716.84;4943609;28;20090;-73
2021/07/10 02:57:23;;;;;;;2.45;1.80;;;;;;;17.58;60.73;98726.66;4944617;28;20112;-73
2021/07/10 02:59:48;;;;;;;2.35;1.50;;;;;;;17.55;60.72;98726.19;4943054;28;20023;-73
2021/07/10 03:02:14;;;;;;;1.33;1.05;;;;;;;17.55;60.93;98720.66;4941071;29;20032;-73
2021/07/10 03:04:41;;;;;;;1.20;0.85;;;;;;;17.61;61.06;98729.56;4942552;28;20396;-73
2021/07/10 03:07:07;;;;;;;2.17;0.93;;;;;;;17.57;61.04;98723.06;4927049;29;20027;-73
2021/07/10 03:09:32;;;;;;;1.38;1.00;;;;;;;17.58;60.75;98721.13;4940498;29;20031;-73
2021/07/10 03:11:57;;;;;;;2.40;1.80;;;;;;;17.60;61.12;98725.16;4943213;29;20024;-72
2021/07/10 03:14:23;;;;;;;2.78;1.30;;;;;;;17.64;61.30;98736.41;4941046;29;20042;-72
2021/07/10 03:16:48;;;;;;;3.83;1.40;;;;;;;17.66;61.03;98729.38;4942116;28;20071;-73
2021/07/10 03:19:13;;;;;;;2.53;1.00;;;;;;;17.68;61.27;98737.38;4944422;29;20055;-73
2021/07/10 03:21:39;;;;;;;1.45;0.90;;;;;;;17.70;61.27;98729.53;4943228;29;20047;-72
2021/07/10 03:24:04;;;;;;;1.80;0.98;;;;;;;17.78;61.29;98731.41;4942558;29;20464;-73
2021/07/10 03:26:30;;;;;;;1.73;0.90;;;;;;;17.79;61.37;98735.81;4943172;29;20019;-73
2021/07/10 03:28:55;;;;;;;2.78;0.98;;;;;;;17.84;61.46;98730.06;4937109;29;20068;-73
2021/07/10 03:31:21;;;;;;;2.97;1.10;;;;;;;17.86;61.15;98735.28;4939482;29;20127;-72
2021/07/10 03:33:46;;;;;;;3.60;0.98;;;;;;;17.86;61.34;98727.75;4944007;29;20117;-73
2021/07/10 03:36:12;;;;;;;1.88;1.08;;;;;;;17.89;61.46;98737.38;4923890;29;20052;-73
2021/07/10 03:38:40;;;;;;;3.65;1.38;;;;;;;17.92;60.94;98735.88;4941787;29;20059;-73
2021/07/10 03:41:05;;;;;;;2.13;1.42;;;;;;;17.91;61.39;98742.56;4939973;29;20035;-73
2021/07/10 03:43:31;;;;;;;1.85;0.98;;;;;;;17.91;61.25;98737.03;4944607;29;20023;-73
2021/07/10 03:45:58;;;;;;;3.33;1.10;;;;;;;17.91;61.27;98735.09;4939521;29;20035;-73
2021/07/10 03:48:24;;;;;;;1.70;1.10;;;;;;;17.91;61.26;98737.84;4939882;29;20102;-73
2021/07/10 03:50:49;;;;;;;1.10;0.90;;;;;;;17.94;61.07;98745.47;4942047;29;20137;-73
2021/07/10 03:53:15;;;;;;;1.20;0.82;;;;;;;17.95;61.62;98741.53;4942772;29;20058;-73
2021/07/10 03:55:40;;;;;;;1.25;1.10;;;;;;;17.97;61.41;98739.25;4943805;29;20461;-73
2021/07/10 03:58:06;;;;;;;1.38;0.90;;;;;;;17.98;61.48;98751.97;4941890;28;20083;-73
2021/07/10 04:00:31;;;;;;;1.58;0.90;;;;;;;18.00;61.32;98744.16;4941045;29;20027;-73
2021/07/10 04:02:57;;;;;;;1.92;1.00;;;;;;;18.00;61.24;98737.81;4943015;29;20027;-73
2021/07/10 04:05:22;;;;;;;1.35;1.00;;;;;;;18.02;61.46;98746.59;4942538;29;20032;-73
2021/07/10 04:07:48;;;;;;;2.35;0.90;;;;;;;18.04;61.33;98744.31;4943541;29;20028;-73
2021/07/10 04:10:15;;;;;;;2.55;0.70;;;;;;;18.09;61.53;98746.06;4938248;29;20489;-73
2021/07/10 04:12:42;;;;;;;1.40;0.98;;;;;;;18.10;61.49;98753.22;4940982;29;20035;-72
2021/07/10 04:15:09;;;;;;;2.83;0.90;;;;;;;18.10;61.46;98747.69;4944329;29;20039;-73
2021/07/10 04:17:34;;;;;;;2.58;0.90;;;;;;;18.15;61.36;98753.03;4942443;29;20028;-72
2021/07/10 04:20:00;;;;;;;1.83;0.80;;;;;;;18.20;61.64;98757.53;4941785;29;20087;-73
2021/07/10 04:22:26;;;;;;;2.60;1.10;;;;;;;18.23;61.53;98754.91;4941401;28;20071;-73
2021/07/10 04:24:52;;;;;;;2.95;1.17;;;;;;;18.24;61.69;98747.38;4939819;29;20062;-72
2021/07/10 04:27:18;;;;;;;2.45;1.05;;;;;;;18.27;61.56;98763.38;4943066;29;20063;-73
2021/07/10 04:29:45;;;;;;;3.42;1.00;;;;;;;18.27;61.43;98760.59;4944854;29;20035;-73
2021/07/10 04:32:16;;;;;;;3.00;1.17;;;;;;;18.32;61.78;98763.16;4941523;29;20027;-73
2021/07/10 04:34:42;;;;;;;3.08;1.25;;;;;;;18.30;61.64;98763.50;4934473;29;20043;-73
2021/07/10 04:37:07;;;;;;;4.20;1.20;;;;;;;18.36;61.63;98775.22;4940054;29;20035;-73
2021/07/10 04:39:33;;;;;;;2.85;1.33;;;;;;;18.40;61.76;98772.56;4940936;29;20105;-73
2021/07/10 04:42:00;;;;;;;1.60;1.30;;;;;;;18.43;61.79;98767.16;4942333;29;20028;-73
2021/07/10 04:44:25;;;;;;;4.63;1.50;;;;;;;18.51;61.76;98765.44;4942344;28;20035;-73
2021/07/10 04:46:50;;;;;;;2.67;1.30;;;;;;;18.54;61.64;98769.50;4942093;29;20574;-73
2021/07/10 04:49:16;;;;;;;3.35;1.60;;;;;;;18.56;61.51;98769.94;4944083;29;20046;-72
2021/07/10 04:51:41;;;;;;;2.10;1.25;;;;;;;18.56;61.47;98773.53;4928082;29;20035;-73
2021/07/10 04:54:07;;;;;;;3.97;1.40;;;;;;;18.59;61.39;98777.59;4928020;29;20483;-73
2021/07/10 04:56:32;;;;;;;2.47;1.70;;;;;;;18.60;61.56;98782.00;4947603;29;20467;-73
2021/07/10 04:58:58;;;;;;;2.58;1.52;;;;;;;18.60;61.98;98777.28;4926352;29;20039;-73
2021/07/10 05:01:23;;;;;;;2.80;1.60;;;;;;;18.62;61.56;98776.13;4927075;29;20465;-73
2021/07/10 05:03:49;;;;;;;3.47;1.65;;;;;;;18.60;61.44;98785.59;4947047;29;20042;-73
2021/07/10 05:06:14;;;;;;;3.33;1.50;;;;;;;18.56;61.49;98781.88;4910073;29;20109;-72
2021/07/10 05:08:40;;;;;;;3.10;1.92;;;;;;;18.59;61.48;98783.16;4944383;29;20020;-71
2021/07/10 05:11:05;;;;;;;3.22;1.83;;;;;;;18.59;61.54;98780.38;4942904;28;20047;-72
2021/07/10 05:13:30;;;;;;;2.78;1.90;;;;;;;18.59;61.58;98780.38;4944301;29;20038;-72
2021/07/10 05:15:56;;;;;;;1.55;1.40;;;;;;;18.58;61.43;98778.75;4946551;28;20042;-73
2021/07/10 05:18:21;;;;;;;1.92;1.70;;;;;;;18.59;61.62;98778.41;4943609;29;20413;-73
2021/07/10 05:20:47;;;;;;;4.22;1.60;;;;;;;18.63;61.66;98778.53;4933932;29;20039;-74
2021/07/10 05:23:13;;;;;;;2.30;1.50;;;;;;;18.64;61.67;98782.13;4921940;29;20085;-74
2021/07/10 05:25:39;;;;;;;1.90;1.67;;;;;;;18.67;61.69;98781.47;4931336;29;20477;-73
2021/07/10 05:28:04;;;;;;;3.70;1.60;;;;;;;18.72;61.66;98784.03;4937274;29;20030;-73
2021/07/10 05:30:30;;;;;;;2.80;1.52;;;;;;;18.73;61.74;98785.66;4924980;29;20099;-73
2021/07/10 05:32:55;;;;;;;3.60;1.40;;;;;;;18.74;61.64;98793.63;4933300;29;20036;-73
2021/07/10 05:35:22;;;;;;;2.67;1.20;;;;;;;18.79;61.43;98787.03;4919946;29;20044;-71
2021/07/10 05:37:48;;;;;;;2.03;1.75;;;;;;;18.85;61.87;98801.53;4916676;29;20031;-73
2021/07/10 05:40:13;;;;;;;3.00;1.55;;;;;;;18.87;61.53;98793.66;4923011;29;20019;-74
2021/07/10 05:42:39;;;;;;;1.65;1.48;;;;;;;18.91;61.68;98794.59;4937257;29;20035;-73
2021/07/10 05:45:05;;;;;;;3.60;1.70;;;;;;;18.93;61.65;98803.41;4919633;29;20031;-74
2021/07/10 05:47:30;;;;;;;1.55;1.40;;;;;;;18.94;61.68;98802.25;4937018;29;20090;-73
2021/07/10 05:49:56;;;;;;;1.85;1.20;;;;;;;18.97;61.45;98804.34;4937047;29;20020;-74
2021/07/10 05:52:21;;;;;;;3.22;2.03;;;;;;;18.97;61.54;98807.13;4935107;29;20546;-74
2021/07/10 05:54:47;;;;;;;12.55;6.35;;;;;;;19.00;61.76;98816.75;4937358;29;20030;-74
2021/07/10 05:57:12;;;;;;;8.95;4.93;;;;;;;19.02;61.63;98814.47;4936565;29;20019;-74
2021/07/10 05:59:37;;;;;;;4.63;2.17;;;;;;;19.06;61.55;98814.56;4938756;29;20019;-74
2021/07/10 06:02:06;;;;;;;5.32;1.42;;;;;;;19.03;61.59;98819.66;4932964;29;20024;-74
2021/07/10 06:04:33;;;;;;;3.63;1.70;;;;;;;19.06;61.48;98815.41;4936217;29;20031;-74
2021/07/10 06:06:58;;;;;;;5.15;3.20;;;;;;;19.13;61.64;98820.38;4935986;29;20035;-74
2021/07/10 06:09:23;;;;;;;5.03;2.50;;;;;;;19.16;61.54;98834.38;4936315;29;20038;-74
2021/07/10 06:11:49;;;;;;;2.88;1.35;;;;;;;19.20;61.36;98826.19;4921994;29;20047;-74
2021/07/10 06:14:14;;;;;;;2.47;1.13;;;;;;;19.25;61.21;98830.69;4936035;29;20027;-73
2021/07/10 06:16:39;;;;;;;4.40;2.17;;;;;;;19.25;61.34;98831.53;4936365;29;20039;-74
2021/07/10 06:19:05;;;;;;;1.70;1.10;;;;;;;19.26;61.41;98833.16;4920371;29;20377;-74
2021/07/10 06:21:31;;;;;;;1.88;0.95;;;;;;;19.25;60.95;98837.09;4936599;29;20362;-75
2021/07/10 06:23:56;;;;;;;0.80;0.80;;;;;;;19.25;60.78;98839.88;4927858;29;20118;-74
2021/07/10 06:26:22;;;;;;;0.70;0.70;;;;;;;19.25;60.69;98839.03;4936173;29;20126;-74
2021/07/10 06:28:50;;;;;;;1.48;0.80;;;;;;;19.22;60.59;98846.13;4935966;29;20036;-74
2021/07/10 06:31:19;;;;;;;1.55;1.00;;;;;;;19.22;60.58;98843.34;4935431;29;20034;-74
2021/07/10 06:33:45;;;;;;;1.55;0.80;;;;;;;19.23;60.07;98844.97;4938351;29;20067;-74
2021/07/10 06:36:11;;;;;;;0.57;0.50;;;;;;;19.21;59.88;98838.94;4919135;29;20123;-75
2021/07/10 06:38:37;;;;;;;1.85;1.10;;;;;;;19.17;60.00;98846.34;4937380;29;20039;-74
2021/07/10 06:41:02;;;;;;;1.25;0.77;;;;;;;19.20;59.63;98848.44;4924570;28;20042;-75
2021/07/10 06:43:27;;;;;;;1.17;0.70;;;;;;;19.24;59.38;98851.31;4928058;29;20036;-76
2021/07/10 06:45:53;;;;;;;0.90;0.70;;;;;;;19.26;59.88;98841.50;4924289;29;20412;-75
2021/07/10 06:48:18;;;;;;;1.17;0.88;;;;;;;19.27;59.31;98845.91;4933398;29;20384;-76
2021/07/10 06:50:43;;;;;;;2.03;0.90;;;;;;;19.28;59.19;98847.53;4936262;29;20032;-76
2021/07/10 06:53:09;;;;;;;3.78;0.95;;;;;;;19.32;59.44;98844.84;4935802;29;20051;-75
2021/07/10 06:55:34;;;;;;;1.10;1.00;;;;;;;19.33;58.87;98843.69;4935611;29;20032;-75
2021/07/10 06:57:59;;;;;;;1.02;0.93;;;;;;;19.30;58.56;98844.38;4921821;29;20036;-75
2021/07/10 07:00:25;;;;;;;2.28;1.00;;;;;;;19.25;58.93;98844.59;4935872;29;20464;-75
2021/07/10 07:02:50;;;;;;;2.97;1.83;;;;;;;19.23;58.97;98847.75;4935558;29;20384;-75
2021/07/10 07:05:16;;;;;;;0.90;0.80;;;;;;;19.27;58.76;98839.50;4935693;29;20444;-76
2021/07/10 07:07:42;;;;;;;2.25;0.80;;;;;;;19.27;58.77;98840.34;4935427;29;20035;-75
2021/07/10 07:10:10;;;;;;;1.80;0.68;;;;;;;19.24;58.66;98829.06;4935813;29;20034;-75
2021/07/10 07:12:36;;;;;;;2.38;1.08;;;;;;;19.27;58.76;98833.94;4934149;29;20043;-75
2021/07/10 07:15:07;;;;;;;3.25;0.90;;;;;;;19.28;59.05;98835.56;4934234;29;20032;-75
2021/07/10 07:17:32;;;;;;;1.48;0.60;;;;;;;19.34;58.43;98832.25;4947700;29;20119;-74
2021/07/10 07:19:58;;;;;;;2.28;0.77;;;;;;;19.36;58.24;98839.44;4940187;29;20483;-75
2021/07/10 07:22:23;;;;;;;2.10;0.80;;;;;;;19.36;58.18;98831.88;4926079;29;20067;-74
2021/07/10 07:24:48;;;;;;;1.33;0.70;;;;;;;19.34;57.44;98823.06;4936523;29;20083;-75
2021/07/10 07:27:14;;;;;;;0.98;0.77;;;;;;;19.32;58.01;98830.94;4935580;29;20024;-74
2021/07/10 07:29:39;;;;;;;0.60;0.60;;;;;;;19.33;58.13;98833.41;4937843;29;20024;-74
2021/07/10 07:32:05;;;;;;;1.40;0.80;;;;;;;19.32;57.28;98833.72;4940091;29;20027;-74
2021/07/10 07:34:30;;;;;;;1.48;0.80;;;;;;;19.33;57.54;98833.41;4916697;29;20417;-74
2021/07/10 07:36:56;;;;;;;0.75;0.75;;;;;;;19.33;57.37;98827.00;4916727;29;20035;-74
2021/07/10 07:39:21;;;;;;;1.30;1.00;;;;;;;19.38;57.39;98826.78;4935435;29;20024;-75
2021/07/10 07:41:47;;;;;;;2.40;0.93;;;;;;;19.45;57.61;98826.19;4936130;29;20032;-75
2021/07/10 07:44:12;;;;;;;1.92;1.00;;;;;;;19.49;57.46;98824.34;4935015;29;20027;-75
2021/07/10 07:46:38;;;;;;;1.73;0.82;;;;;;;19.58;57.76;98832.56;4935193;29;20123;-75
2021/07/10 07:49:03;;;;;;;1.08;1.00;;;;;;;19.65;57.65;98818.91;4935061;29;20141;-75
2021/07/10 07:51:29;;;;;;;1.25;1.10;;;;;;;19.71;57.34;98825.84;4935171;29;20031;-75
2021/07/10 07:53:54;;;;;;;2.35;0.95;;;;;;;19.76;57.77;98817.28;4935168;29;20440;-75
2021/07/10 07:56:20;;;;;;;1.40;1.00;;;;;;;19.83;57.51;98821.44;4935422;29;20110;-75
2021/07/10 07:58:45;;;;;;;2.42;1.20;;;;;;;19.92;57.50;98822.97;4933477;29;20110;-75
2021/07/10 08:01:11;;;;;;;1.20;1.10;;;;;;;20.00;57.32;98818.41;4934782;29;20480;-76
2021/07/10 08:03:37;;;;;;;1.75;1.30;;;;;;;20.02;56.98;98821.66;4935436;29;20473;-75
2021/07/10 08:06:03;;;;;;;1.88;0.90;;;;;;;20.07;56.99;98826.19;4942542;29;20035;-75
2021/07/10 08:08:29;;;;;;;1.10;1.00;;;;;;;20.11;56.57;98824.34;4924870;28;20031;-74
2021/07/10 08:10:54;;;;;;;1.38;1.00;;;;;;;20.17;57.05;98822.09;4934828;28;20038;-74
2021/07/10 08:13:20;;;;;;;1.50;1.08;;;;;;;20.20;56.62;98819.41;4935151;29;20040;-75
2021/07/10 08:15:45;;;;;;;1.25;0.93;;;;;;;20.22;56.51;98821.88;4935339;29;20039;-74
2021/07/10 08:18:11;;;;;;;1.48;0.90;;;;;;;20.22;56.45;98824.66;4952003;29;20392;-75
2021/07/10 08:20:37;;;;;;;2.65;1.20;;;;;;;20.26;56.29;98821.97;4952732;28;20118;-75
2021/07/10 08:23:03;;;;;;;3.60;1.40;;;;;;;20.30;56.32;98826.50;4952692;28;20035;-74
2021/07/10 08:25:29;;;;;;;3.10;2.42;;;;;;;20.33;56.42;98830.53;4949640;29;20036;-75
2021/07/10 08:27:54;;;;;;;1.50;1.15;;;;;;;20.35;56.53;98833.78;4942985;29;20499;-75
2021/07/10 08:30:20;;;;;;;2.13;1.10;;;;;;;20.45;56.40;98835.25;4948467;29;20039;-74
2021/07/10 08:32:47;;;;;;;1.65;1.27;;;;;;;20.49;55.86;98828.63;4949242;28;20036;-75
2021/07/10 08:35:14;;;;;;;1.10;0.90;;;;;;;20.48;55.77;98840.94;4930379;29;20535;-76
2021/07/10 08:37:40;;;;;;;1.42;1.00;;;;;;;20.48;55.79;98842.91;4951053;29;20059;-75
2021/07/10 08:40:07;;;;;;;1.30;1.20;;;;;;;20.51;55.87;98840.25;4902717;29;20115;-75
2021/07/10 08:42:33;;;;;;;2.13;1.20;;;;;;;20.55;55.96;98847.91;4919550;29;20036;-75
2021/07/10 08:45:03;;;;;;;1.45;0.90;;;;;;;20.55;55.35;98853.47;4919095;29;20051;-76
2021/07/10 08:47:30;;;;;;;1.17;0.70;;;;;;;20.49;54.58;98850.09;4930415;29;20028;-76
2021/07/10 08:49:57;;;;;;;1.67;0.65;;;;;;;20.42;54.88;98852.66;4941766;29;20507;-75
2021/07/10 08:52:24;;;;;;;0.70;0.70;;;;;;;20.34;54.42;98855.25;4937701;29;20507;-75
2021/07/10 08:54:49;;;;;;;0.80;0.80;;;;;;;20.31;54.51;98855.13;4957838;29;20035;-74
2021/07/10 08:57:14;;;;;;;3.63;0.90;;;;;;;20.29;53.99;98855.50;4953531;29;20104;-74
2021/07/10 08:59:40;;;;;;;0.95;0.60;;;;;;;20.31;54.70;98849.56;4938834;29;20071;-75
2021/07/10 09:02:06;;;;;;;0.65;0.65;;;;;;;20.34;54.50;98848.88;4949022;29;20479;-74
2021/07/10 09:04:31;;;;;;;1.38;0.70;;;;;;;20.38;54.82;98852.56;4950605;29;20464;-74
2021/07/10 09:06:57;;;;;;;1.25;0.60;;;;;;;20.40;54.22;98852.22;4939846;29;20086;-75
2021/07/10 09:10:00;;;;;;;1.85;0.60;;;;;;;20.47;54.31;98853.25;4938713;29;20361;-74
2021/07/10 09:12:30;;;;;;;1.13;0.70;;;;;;;20.50;54.17;98860.91;4860961;29;20041;-73
2021/07/10 09:15:16;;;;;;;0.50;0.50;;;;;;;20.55;54.17;98848.69;4860412;29;20049;-74
2021/07/10 09:17:47;;;;;;;0.50;0.50;;;;;;;20.60;54.69;98851.22;4893577;29;20381;-73
2021/07/10 09:20:21;;;;;;;0.50;0.50;;;;;;;20.66;53.39;98846.19;4939035;29;20376;-74
2021/07/10 09:22:46;;;;;;;1.15;0.60;;;;;;;20.66;54.09;98849.00;4925109;29;20042;-75
2021/07/10 09:25:26;;;;;;;1.95;0.77;;;;;;;20.74;54.03;98850.03;4925801;29;20453;-75
2021/07/10 09:27:53;;;;;;;0.60;0.60;;;;;;;20.80;53.76;98846.66;4935135;29;20150;-75
2021/07/10 09:30:38;;;;;;;1.42;0.52;;;;;;;20.87;54.07;98842.44;4935322;29;20053;-75
2021/07/10 09:33:13;;;;;;;0.40;0.40;;;;;;;20.94;53.92;98845.44;4933752;29;20384;-76
2021/07/10 09:36:08;;;;;;;2.25;0.50;;;;;;;21.06;54.33;98844.53;4934087;28;20034;-75
2021/07/10 09:38:34;;;;;;;1.25;0.70;;;;;;;21.15;54.15;98847.97;4921100;29;20563;-76
2021/07/10 09:41:11;;;;;;;1.00;0.77;;;;;;;21.26;53.73;98839.88;4936339;29;20156;-76
2021/07/10 09:43:40;;;;;;;0.90;0.70;;;;;;;21.29;52.87;98844.75;4943928;29;20031;-77
2021/07/10 09:46:08;;;;;;;1.13;0.60;;;;;;;21.29;53.15;98843.91;4934799;29;20040;-76
2021/07/10 09:48:40;;;;;;;0.60;0.60;;;;;;;21.38;53.22;98841.78;4936370;29;20298;-76
2021/07/10 09:51:26;;;;;;;0.82;0.70;;;;;;;21.48;53.24;98843.22;4934550;29;20361;-77
2021/07/10 09:53:58;;;;;;;0.40;0.38;;;;;;;21.58;52.67;98839.88;4935600;29;20028;-76
2021/07/10 09:56:24;;;;;;;0.65;0.40;;;;;;;21.65;52.97;98844.84;4937963;29;20028;-76
2021/07/10 09:58:50;;;;;;;0.50;0.50;;;;;;;21.74;51.86;98839.88;4935333;29;20047;-74
2021/07/10 10:01:32;;;;;;;1.10;0.50;;;;;;;21.72;51.96;98839.44;4918326;29;20030;-76
2021/07/10 10:04:02;;;;;;;1.20;0.77;;;;;;;21.73;51.46;98843.84;4935144;29;20028;-76
2021/07/10 10:06:35;;;;;;;1.27;0.50;;;;;;;21.71;51.46;98835.03;4917479;29;20066;-75
2021/07/10 10:09:03;;;;;;;1.95;0.70;;;;;;;21.71;51.61;98841.44;4937208;29;20035;-76
2021/07/10 10:11:59;;;;;;;0.70;0.70;;;;;;;21.73;51.49;98846.66;4934723;29;20035;-74
2021/07/10 10:14:27;;;;;;;1.00;0.60;;;;;;;21.76;51.10;98831.97;4935894;29;20115;-75
2021/07/10 10:16:53;;;;;;;0.80;0.70;;;;;;;21.83;51.60;98836.91;4936616;29;20028;-76
2021/07/10 10:19:21;;;;;;;1.40;0.60;;;;;;;21.93;51.81;98835.56;4934158;29;20027;-74
2021/07/10 10:21:50;;;;;;;2.92;0.93;;;;;;;22.04;51.19;98833.00;4933401;29;20039;-75
2021/07/10 10:24:16;;;;;;;2.97;1.00;;;;;;;22.04;50.77;98833.00;4933561;29;20028;-75
2021/07/10 10:26:44;;;;;;;1.23;0.60;;;;;;;22.11;50.92;98830.38;4932402;29;20028;-74
2021/07/10 10:29:10;;;;;;;0.93;0.40;;;;;;;22.12;49.99;98832.00;4932908;29;20500;-77
2021/07/10 10:31:38;;;;;;;1.20;0.50;;;;;;;22.06;50.19;98827.84;4933796;29;20110;-75
2021/07/10 10:34:05;;;;;;;2.33;0.50;;;;;;;22.04;50.33;98835.78;4933709;29;20032;-73
2021/07/10 10:36:33;;;;;;;1.48;0.40;;;;;;;22.01;50.13;98832.56;4932216;29;20028;-76
2021/07/10 10:38:58;;;;;;;0.40;0.40;;;;;;;22.06;50.31;98836.22;4933956;29;20020;-75
2021/07/10 10:41:24;;;;;;;1.42;0.40;;;;;;;22.11;49.73;98835.97;4934590;29;20448;-74
2021/07/10 10:43:55;;;;;;;1.23;0.40;;;;;;;22.15;50.38;98822.88;4936855;29;20039;-75
2021/07/10 10:46:24;;;;;;;0.90;0.50;;;;;;;22.29;50.45;98831.56;4936318;29;20525;-74
2021/07/10 10:48:52;;;;;;;0.60;0.55;;;;;;;22.45;50.91;98819.53;4933206;29;20110;-78
2021/07/10 10:51:32;;;;;;;1.38;0.70;;;;;;;22.64;50.61;98823.50;4937928;29;20931;-78
2021/07/10 10:54:19;;;;;;;2.50;0.73;;;;;;;22.81;49.88;98827.84;4937389;29;20027;-75
2021/07/10 10:56:46;;;;;;;6.90;1.83;;;;;;;22.83;48.96;98820.69;4932748;29;20071;-74
2021/07/10 10:59:41;;;;;;;1.30;0.60;;;;;;;22.89;49.45;98821.19;4936769;28;20031;-74
2021/07/10 11:02:28;;;;;;;3.20;0.70;;;;;;;22.92;49.16;98812.06;4910767;29;20408;-77
2021/07/10 11:04:56;;;;;;;3.97;0.80;;;;;;;22.98;48.90;98812.59;4933720;29;20044;-77
2021/07/10 11:07:23;;;;;;;0.93;0.80;;;;;;;23.04;48.36;98822.25;4937399;28;20063;-77
2021/07/10 11:10:16;;;;;;;0.50;0.43;;;;;;;23.16;47.88;98818.50;4934072;29;20196;-77
2021/07/10 11:12:48;;;;;;;1.17;0.40;;;;;;;23.18;48.42;98816.13;4933228;29;20063;-78
2021/07/10 11:15:38;;;;;;;0.52;0.40;;;;;;;23.31;49.02;98816.78;4934968;29;20027;-79
2021/07/10 11:18:05;;;;;;;2.17;0.50;;;;;;;23.46;48.70;98818.63;4931377;29;20087;-77
2021/07/10 11:20:50;;;;;;;1.40;0.50;;;;;;;23.55;47.55;98809.16;4933134;29;20106;-81
2021/07/10 11:23:30;;;;;;;0.85;0.30;;;;;;;23.59;46.51;98818.44;4934665;29;20024;-76
2021/07/10 11:26:00;;;;;;;1.52;0.50;;;;;;;23.56;46.97;98822.81;4936104;29;20563;-76
2021/07/10 11:28:37;;;;;;;0.93;0.57;;;;;;;23.57;47.19;98810.41;4934587;29;20159;-74
2021/07/10 11:31:08;;;;;;;0.50;0.50;;;;;;;23.57;46.86;98812.41;4932335;29;20042;-75
2021/07/10 11:33:56;;;;;;;1.60;0.40;;;;;;;23.59;47.49;98810.84;4933725;29;20488;-74
2021/07/10 11:36:30;;;;;;;0.43;0.40;;;;;;;23.64;47.34;98806.91;4933092;29;20460;-75